createdAt,value
2022-08-08T00:00:54.306Z,100.00
2022-08-08T00:03:32.216Z,100.00
2022-08-08T00:06:47.804Z,100.00
2022-08-08T00:10:05.160Z,100.00
2022-08-08T00:13:20.621Z,100.00
2022-08-08T00:16:28.951Z,100.00
2022-08-08T00:19:46.702Z,100.00
2022-08-08T00:23:00.584Z,100.00
2022-08-08T00:26:08.695Z,100.00
2022-08-08T00:29:45.837Z,100.00
2022-08-08T00:32:49.485Z,100.00
2022-08-08T00:36:02.414Z,100.00
2022-08-08T00:41:06.310Z,100.00
2022-08-08T00:43:23.663Z,100.00
2022-08-08T00:46:57.015Z,100.00
2022-08-08T00:50:26.792Z,100.00
2022-08-08T00:54:15.290Z,100.00
2022-08-08T00:58:14.724Z,100.00
2022-08-08T01:01:29.303Z,100.00
2022-08-08T01:05:59.794Z,100.00
2022-08-08T01:09:50.662Z,100.00
2022-08-08T01:13:43.934Z,100.00
2022-08-08T01:17:35.097Z,100.00
2022-08-08T01:21:36.943Z,100.00
2022-08-08T01:25:40.731Z,100.00
2022-08-08T01:29:35.559Z,100.00
2022-08-08T01:34:00.091Z,100.00
2022-08-08T01:38:05.799Z,100.00
2022-08-08T01:41:34.415Z,100.00
2022-08-08T01:44:58.896Z,100.00
2022-08-08T01:48:16.206Z,100.00
2022-08-08T01:52:28.086Z,100.00
2022-08-08T01:56:29.739Z,100.00
2022-08-08T01:59:14.833Z,100.00
2022-08-08T02:02:39.998Z,100.00
2022-08-08T02:05:59.612Z,100.00
2022-08-08T02:10:01.892Z,100.00
2022-08-08T02:12:54.994Z,100.00
2022-08-08T02:16:20.545Z,100.00
2022-08-08T02:19:57.978Z,100.00
2022-08-08T02:23:07.670Z,100.00
2022-08-08T02:26:17.498Z,100.00
2022-08-08T02:29:54.789Z,100.00
2022-08-08T02:33:15.419Z,100.00
2022-08-08T02:36:40.732Z,100.00
2022-08-08T02:40:10.296Z,100.00
2022-08-08T02:44:42.553Z,100.00
2022-08-08T02:48:26.268Z,100.00
2022-08-08T02:52:03.150Z,100.00
2022-08-08T02:56:08.549Z,100.00
2022-08-08T03:00:27.073Z,100.00
2022-08-08T03:05:05.091Z,100.00
2022-08-08T03:08:33.540Z,100.00
2022-08-08T03:12:36.763Z,100.00
2022-08-08T03:16:34.622Z,100.00
2022-08-08T03:20:05.650Z,100.00
2022-08-08T03:23:17.554Z,100.00
2022-08-08T03:26:31.120Z,100.00
2022-08-08T03:29:55.348Z,100.00
2022-08-08T03:33:55.284Z,100.00
2022-08-08T03:36:45.029Z,100.00
2022-08-08T03:40:00.641Z,100.00
2022-08-08T03:43:18.074Z,100.00
2022-08-08T03:46:25.915Z,100.00
2022-08-08T03:49:57.220Z,100.00
2022-08-08T03:53:04.394Z,100.00
2022-08-08T03:56:09.516Z,100.00
2022-08-08T03:59:22.527Z,100.00
2022-08-08T04:02:36.553Z,100.00
2022-08-08T04:05:51.427Z,100.00
2022-08-08T04:09:06.814Z,100.00
2022-08-08T04:12:16.760Z,100.00
2022-08-08T04:15:24.431Z,100.00
2022-08-08T04:18:44.626Z,100.00
2022-08-08T04:21:48.093Z,100.00
2022-08-08T04:24:54.409Z,100.00
2022-08-08T04:28:37.018Z,100.00
2022-08-08T04:31:30.719Z,100.00
2022-08-08T04:34:55.841Z,100.00
2022-08-08T04:38:06.275Z,100.00
2022-08-08T04:41:18.036Z,100.00
2022-08-08T04:44:26.924Z,100.00
2022-08-08T04:47:30.834Z,100.00
2022-08-08T04:50:38.172Z,100.00
2022-08-08T04:54:27.173Z,100.00
2022-08-08T04:57:07.451Z,100.00
2022-08-08T05:00:19.674Z,100.00
2022-08-08T05:04:09.957Z,100.00
2022-08-08T05:06:52.176Z,100.00
2022-08-08T05:09:57.361Z,100.00
2022-08-08T05:13:02.612Z,100.00
2022-08-08T05:16:51.673Z,100.00
2022-08-08T05:20:12.537Z,100.00
2022-08-08T05:23:11.075Z,100.00
2022-08-08T05:26:14.458Z,100.00
2022-08-08T05:29:17.641Z,100.00
2022-08-08T05:32:24.610Z,100.00
2022-08-08T05:35:34.119Z,100.00
2022-08-08T05:38:48.704Z,100.00
2022-08-08T05:41:57.383Z,100.00
2022-08-08T05:45:10.335Z,100.00
2022-08-08T05:48:31.342Z,100.00
2022-08-08T05:51:48.457Z,100.00
2022-08-08T05:55:00.349Z,100.00
2022-08-08T05:58:17.876Z,100.00
2022-08-08T06:01:55.424Z,100.00
2022-08-08T06:04:56.299Z,100.00
2022-08-08T06:08:09.957Z,100.00
2022-08-08T06:11:32.801Z,100.00
2022-08-08T06:14:48.818Z,100.00
2022-08-08T06:18:20.249Z,100.00
2022-08-08T06:21:32.574Z,100.00
2022-08-08T06:24:47.377Z,100.00
2022-08-08T06:27:56.987Z,100.00
2022-08-08T06:31:04.218Z,100.00
2022-08-08T06:34:26.191Z,100.00
2022-08-08T06:37:37.351Z,98.12
2022-08-08T06:40:53.863Z,100.00
2022-08-08T06:44:03.332Z,100.00
2022-08-08T06:47:11.665Z,100.00
2022-08-08T06:50:17.614Z,100.00
2022-08-08T06:53:39.163Z,100.00
2022-08-08T06:56:47.103Z,99.44
2022-08-08T07:00:12.644Z,100.00
2022-08-08T07:04:36.995Z,100.00
2022-08-08T07:06:58.239Z,94.58
2022-08-08T07:10:08.876Z,100.00
2022-08-08T07:13:25.128Z,93.00
2022-08-08T07:16:50.815Z,98.26
2022-08-08T07:20:05.169Z,90.63
2022-08-08T07:23:22.464Z,88.28
2022-08-08T07:26:35.697Z,82.31
2022-08-08T07:29:59.934Z,83.27
2022-08-08T07:33:05.982Z,78.04
2022-08-08T07:36:15.211Z,76.08
2022-08-08T07:39:29.461Z,79.77
2022-08-08T07:42:38.382Z,76.37
2022-08-08T07:46:05.442Z,74.77
2022-08-08T07:49:13.419Z,76.60
2022-08-08T07:52:23.040Z,71.99
2022-08-08T07:55:36.444Z,66.73
2022-08-08T07:58:45.174Z,57.76
2022-08-08T08:02:35.728Z,58.81
2022-08-08T08:05:33.138Z,67.10
2022-08-08T08:08:41.855Z,56.01
2022-08-08T08:11:55.300Z,55.37
2022-08-08T08:15:08.513Z,56.20
2022-08-08T08:18:18.095Z,54.19
2022-08-08T08:21:52.668Z,50.00
2022-08-08T08:25:10.238Z,47.96
2022-08-08T08:28:21.264Z,49.88
2022-08-08T08:31:29.811Z,43.80
2022-08-08T08:34:49.296Z,45.30
2022-08-08T08:38:15.792Z,44.86
2022-08-08T08:41:20.192Z,41.44
2022-08-08T08:44:29.011Z,42.77
2022-08-08T08:47:44.879Z,42.33
2022-08-08T08:50:52.350Z,42.25
2022-08-08T08:53:59.764Z,40.83
2022-08-08T08:57:15.731Z,40.29
2022-08-08T09:00:22.645Z,39.02
2022-08-08T09:03:46.504Z,38.74
2022-08-08T09:06:53.941Z,40.43
2022-08-08T09:10:01.011Z,41.26
2022-08-08T09:13:18.621Z,38.78
2022-08-08T09:16:33.207Z,37.17
2022-08-08T09:21:57.187Z,36.35
2022-08-08T09:23:03.699Z,37.39
2022-08-08T09:26:16.061Z,36.67
2022-08-08T09:29:24.624Z,35.98
2022-08-08T09:32:50.267Z,36.43
2022-08-08T09:36:07.021Z,35.89
2022-08-08T09:39:19.144Z,36.99
2022-08-08T09:42:31.818Z,36.32
2022-08-08T09:46:01.151Z,36.27
2022-08-08T09:49:41.565Z,36.37
2022-08-08T09:52:56.595Z,34.61
2022-08-08T09:56:05.936Z,34.21
2022-08-08T09:59:42.825Z,33.97
2022-08-08T10:02:40.409Z,35.09
2022-08-08T10:05:46.844Z,33.31
2022-08-08T10:08:53.428Z,34.22
2022-08-08T10:12:27.035Z,32.88
2022-08-08T10:15:20.741Z,32.75
2022-08-08T10:18:28.243Z,32.62
2022-08-08T10:21:42.340Z,33.58
2022-08-08T10:25:01.374Z,34.20
2022-08-08T10:28:08.168Z,33.21
2022-08-08T10:31:46.897Z,32.61
2022-08-08T10:34:58.576Z,31.93
2022-08-08T10:38:08.530Z,32.59
2022-08-08T10:41:20.034Z,31.96
2022-08-08T10:44:33.701Z,31.79
2022-08-08T10:47:43.337Z,31.90
2022-08-08T10:50:47.373Z,31.47
2022-08-08T10:53:58.202Z,31.78
2022-08-08T10:57:05.707Z,31.58
2022-08-08T11:00:15.239Z,32.50
2022-08-08T11:03:18.915Z,31.29
2022-08-08T11:06:41.697Z,30.92
2022-08-08T11:09:50.255Z,31.86
2022-08-08T11:13:18.640Z,31.44
2022-08-08T11:16:33.020Z,30.63
2022-08-08T11:19:37.904Z,29.17
2022-08-08T11:22:42.203Z,29.71
2022-08-08T11:25:52.531Z,29.88
2022-08-08T11:29:02.872Z,28.94
2022-08-08T11:32:08.839Z,29.63
2022-08-08T11:35:27.827Z,29.92
2022-08-08T11:38:54.265Z,28.45
2022-08-08T11:41:58.842Z,30.76
2022-08-08T11:45:06.518Z,31.43
2022-08-08T11:48:12.281Z,32.12
2022-08-08T11:51:39.200Z,31.02
2022-08-08T11:54:46.625Z,30.42
2022-08-08T11:57:51.652Z,29.65
2022-08-08T12:00:58.321Z,29.27
2022-08-08T12:04:05.599Z,29.34
2022-08-08T12:07:17.233Z,28.94
2022-08-08T12:10:23.453Z,28.26
2022-08-08T12:13:37.694Z,28.05
2022-08-08T12:16:53.381Z,28.53
2022-08-08T12:19:57.860Z,28.88
2022-08-08T12:23:00.884Z,27.36
2022-08-08T12:26:10.489Z,26.81
2022-08-08T12:29:40.774Z,28.77
2022-08-08T12:32:49.279Z,30.30
2022-08-08T12:35:54.511Z,30.11
2022-08-08T12:38:57.763Z,31.19
2022-08-08T12:42:04.737Z,31.00
2022-08-08T12:45:53.825Z,30.31
2022-08-08T12:48:38.511Z,32.07
2022-08-08T12:51:50.216Z,31.91
2022-08-08T12:55:09.397Z,31.95
2022-08-08T12:58:19.662Z,31.36
2022-08-08T13:01:36.828Z,32.40
2022-08-08T13:04:51.104Z,29.79
2022-08-08T13:08:04.467Z,28.75
2022-08-08T13:11:23.747Z,28.16
2022-08-08T13:14:38.742Z,28.00
2022-08-08T13:18:10.986Z,28.13
2022-08-08T13:21:16.610Z,28.05
2022-08-08T13:24:40.535Z,26.73
2022-08-08T13:27:43.286Z,27.35
2022-08-08T13:30:46.279Z,26.67
2022-08-08T13:33:54.402Z,28.57
2022-08-08T13:36:58.976Z,27.69
2022-08-08T13:40:06.036Z,27.21
2022-08-08T13:43:10.858Z,27.43
2022-08-08T13:46:26.615Z,27.48
2022-08-08T13:50:36.755Z,28.50
2022-08-08T13:52:57.264Z,25.21
2022-08-08T13:56:02.045Z,27.11
2022-08-08T13:59:05.779Z,26.16
2022-08-08T14:02:20.811Z,25.78
2022-08-08T14:05:29.656Z,25.21
2022-08-08T14:08:46.132Z,26.21
2022-08-08T14:11:49.366Z,24.79
2022-08-08T14:14:52.685Z,24.72
2022-08-08T14:17:58.256Z,24.03
2022-08-08T14:21:04.483Z,24.87
2022-08-08T14:24:22.477Z,25.86
2022-08-08T14:27:29.462Z,27.06
2022-08-08T14:30:35.484Z,26.60
2022-08-08T14:33:39.146Z,26.56
2022-08-08T14:36:53.530Z,26.62
2022-08-08T14:40:06.466Z,27.15
2022-08-08T14:43:31.287Z,26.57
2022-08-08T14:46:34.131Z,25.41
2022-08-08T14:50:05.903Z,25.27
2022-08-08T14:53:05.094Z,28.42
2022-08-08T14:56:09.925Z,24.92
2022-08-08T14:59:31.659Z,25.91
2022-08-08T15:02:37.493Z,25.10
2022-08-08T15:06:00.252Z,25.48
2022-08-08T15:09:03.604Z,25.00
2022-08-08T15:12:09.505Z,24.87
2022-08-08T15:15:18.722Z,27.67
2022-08-08T15:18:38.238Z,25.46
2022-08-08T15:21:45.420Z,26.08
2022-08-08T15:24:50.048Z,25.92
2022-08-08T15:28:04.979Z,24.42
2022-08-08T15:31:55.684Z,26.04
2022-08-08T15:34:41.703Z,25.55
2022-08-08T15:37:45.184Z,25.35
2022-08-08T15:40:49.443Z,24.32
2022-08-08T15:44:00.508Z,24.68
2022-08-08T15:47:04.546Z,24.51
2022-08-08T15:50:19.783Z,24.48
2022-08-08T15:53:23.773Z,24.87
2022-08-08T15:56:29.235Z,25.75
2022-08-08T16:00:06.568Z,25.71
2022-08-08T16:02:59.356Z,26.62
2022-08-08T16:06:03.114Z,26.77
2022-08-08T16:13:04.329Z,27.94
2022-08-08T16:13:10.231Z,27.35
2022-08-08T16:15:59.018Z,27.73
2022-08-08T16:19:09.418Z,27.66
2022-08-08T16:22:41.369Z,28.49
2022-08-08T16:25:46.680Z,28.90
2022-08-08T16:28:57.744Z,29.28
2022-08-08T16:32:11.611Z,29.80
2022-08-08T16:35:23.607Z,30.10
2022-08-08T16:38:31.690Z,30.43
2022-08-08T16:41:34.960Z,31.03
2022-08-08T16:44:37.970Z,30.93
2022-08-08T16:47:42.810Z,30.52
2022-08-08T16:50:45.892Z,30.72
2022-08-08T16:55:18.255Z,31.54
2022-08-08T16:57:43.498Z,32.50
2022-08-08T17:00:36.964Z,31.54
2022-08-08T17:04:00.370Z,31.75
2022-08-08T17:07:05.529Z,31.73
2022-08-08T17:10:11.595Z,31.77
2022-08-08T17:13:14.784Z,31.82
2022-08-08T17:16:22.286Z,31.25
2022-08-08T17:19:30.084Z,32.04
2022-08-08T17:22:39.440Z,32.44
2022-08-08T17:25:52.470Z,32.77
2022-08-08T17:28:56.894Z,34.02
2022-08-08T17:32:01.929Z,33.88
2022-08-08T17:35:54.550Z,33.69
2022-08-08T17:38:31.351Z,33.92
2022-08-08T17:41:39.200Z,34.16
2022-08-08T17:44:46.749Z,34.32
2022-08-08T17:47:54.629Z,34.91
2022-08-08T17:51:00.985Z,34.98
2022-08-08T17:54:05.122Z,34.89
2022-08-08T17:57:11.904Z,35.18
2022-08-08T18:01:10.240Z,34.93
2022-08-08T18:04:49.359Z,35.86
2022-08-08T18:08:55.420Z,34.95
2022-08-08T18:12:22.654Z,36.21
2022-08-08T18:16:04.188Z,36.30
2022-08-08T18:20:42.860Z,36.75
2022-08-08T18:23:27.824Z,37.20
2022-08-08T18:26:31.969Z,37.15
2022-08-08T18:29:36.697Z,37.79
2022-08-08T18:32:41.939Z,38.06
2022-08-08T18:35:48.687Z,39.24
2022-08-08T18:38:53.533Z,40.26
2022-08-08T18:41:59.589Z,40.92
2022-08-08T18:45:09.294Z,42.15
2022-08-08T18:48:31.608Z,42.89
2022-08-08T18:51:54.250Z,43.83
2022-08-08T18:55:09.856Z,44.99
2022-08-08T18:58:14.541Z,45.91
2022-08-08T19:02:26.528Z,47.65
2022-08-08T19:04:42.388Z,48.30
2022-08-08T19:07:52.112Z,48.58
2022-08-08T19:10:59.518Z,50.38
2022-08-08T19:14:02.973Z,52.31
2022-08-08T19:17:07.513Z,52.94
2022-08-08T19:20:14.214Z,55.09
2022-08-08T19:23:17.674Z,55.17
2022-08-08T19:26:30.164Z,55.37
2022-08-08T19:29:40.559Z,55.44
2022-08-08T19:32:43.940Z,57.22
2022-08-08T19:36:07.941Z,57.73
2022-08-08T19:39:11.406Z,58.36
2022-08-08T19:42:16.099Z,59.19
2022-08-08T19:45:59.708Z,60.10
2022-08-08T19:48:42.547Z,60.63
2022-08-08T19:51:46.268Z,60.18
2022-08-08T19:54:56.191Z,61.54
2022-08-08T19:58:04.838Z,62.11
2022-08-08T20:01:18.346Z,62.00
2022-08-08T20:04:23.723Z,63.32
2022-08-08T20:08:28.825Z,65.20
2022-08-08T20:10:50.071Z,64.66
2022-08-08T20:14:33.054Z,65.40
2022-08-08T20:17:27.698Z,66.77
2022-08-08T20:20:31.213Z,66.67
2022-08-08T20:23:34.879Z,67.67
2022-08-08T20:26:38.422Z,68.39
2022-08-08T20:30:00.179Z,69.65
2022-08-08T20:33:18.413Z,70.50
2022-08-08T20:36:17.277Z,69.96
2022-08-08T20:39:33.714Z,69.62
2022-08-08T20:42:42.465Z,69.54
2022-08-08T20:45:54.665Z,70.94
2022-08-08T20:49:01.247Z,71.20
2022-08-08T20:52:05.910Z,72.20
2022-08-08T20:55:22.309Z,72.84
2022-08-08T20:58:28.589Z,74.29
2022-08-08T21:02:05.462Z,74.56
2022-08-08T21:05:01.056Z,74.39
2022-08-08T21:08:37.305Z,73.81
2022-08-08T21:11:51.554Z,74.70
2022-08-08T21:14:51.024Z,74.63
2022-08-08T21:17:57.765Z,75.89
2022-08-08T21:21:00.797Z,76.29
2022-08-08T21:24:19.481Z,77.35
2022-08-08T21:28:06.423Z,77.34
2022-08-08T21:30:53.263Z,77.14
2022-08-08T21:33:57.728Z,77.20
2022-08-08T21:37:11.447Z,78.53
2022-08-08T21:40:31.215Z,77.46
2022-08-08T21:43:34.887Z,78.32
2022-08-08T21:48:07.423Z,79.02
2022-08-08T21:50:02.801Z,79.19
2022-08-08T21:54:31.175Z,78.79
2022-08-08T21:56:38.155Z,79.99
2022-08-08T22:00:03.637Z,81.11
2022-08-08T22:03:17.961Z,81.21
2022-08-08T22:06:30.882Z,82.91
2022-08-08T22:09:40.683Z,82.78
2022-08-08T22:12:44.179Z,84.25
2022-08-08T22:15:59.520Z,84.25
2022-08-08T22:19:08.985Z,83.79
2022-08-08T22:22:20.120Z,84.00
2022-08-08T22:25:41.563Z,85.87
2022-08-08T22:29:13.702Z,85.07
2022-08-08T22:32:19.200Z,85.09
2022-08-08T22:35:23.837Z,86.10
2022-08-08T22:38:28.375Z,86.80
2022-08-08T22:41:31.392Z,87.21
2022-08-08T22:44:34.583Z,88.13
2022-08-08T22:47:41.452Z,88.25
2022-08-08T22:50:51.115Z,88.28
2022-08-08T22:54:34.103Z,89.25
2022-08-08T22:57:18.712Z,89.70
2022-08-08T23:00:22.237Z,90.23
2022-08-08T23:03:25.279Z,91.58
2022-08-08T23:06:37.441Z,91.82
2022-08-08T23:09:58.695Z,91.92
2022-08-08T23:13:02.618Z,92.32
2022-08-08T23:16:38.058Z,93.57
2022-08-08T23:19:32.616Z,94.02
2022-08-08T23:22:35.806Z,94.29
2022-08-08T23:25:48.255Z,95.26
2022-08-08T23:28:51.873Z,96.07
2022-08-08T23:31:55.352Z,95.07
2022-08-08T23:34:59.455Z,94.13
2022-08-08T23:38:03.871Z,95.56
2022-08-08T23:41:17.490Z,96.97
2022-08-08T23:44:29.102Z,97.93
2022-08-08T23:49:05.627Z,97.46
2022-08-08T23:50:57.754Z,98.68
2022-08-08T23:54:39.415Z,99.12
2022-08-08T23:57:38.797Z,99.18
